KIDA/IDA METAR and TAF weather

Enter ICAO airport designator
Station Type Date Time Source
KIDA METAR 2021/07/24 20:53 UTC NOAA

KIDA 242053Z 21007KT 7SM CLR 29/06 A3017 RMK AO2 SLP172 T02940056 58019


Station Type Date Time Source
KIDA Decoded METAR 2021/07/24 20:53 UTC NOAA

IDAHO FALLS REGIONAL AIRPORT, ID, United States (KIDA) 43-31N 112-04W 1453M
Jul 24, 2021 - 04:53 PM EDT / 2021.07.24 2053 UTC
Wind: from the SSW (210 degrees) at 8 MPH (7 KT):0
Visibility: 7 mile(s):0
Sky conditions: clear
Temperature: 84.9 F (29.4 C)
Dew Point: 42.1 F (5.6 C)
Relative Humidity: 22%
Pressure (altimeter): 30.17 in. Hg (1021 hPa)
Pressure tendency: 0.06 inches (1.9 hPa) lower than three hours ago
ob: KIDA 242053Z 21007KT 7SM CLR 29/06 A3017 RMK AO2 SLP172 T02940056 58019
cycle: 21

Station Type Date Time Source
KIDA TAF 2021/07/24 18:22 UTC NOAA

TAF KIDA 241720Z 2418/2518 23008KT P6SM SKC
FM250200 VRB06KT P6SM SKC

Example: see airport list